KHKS/HKS METAR and TAF weather

Enter ICAO airport designator
Station Type Date Time Source
KHKS METAR 2021/09/25 12:53 UTC NOAA

KHKS 251253Z 00000KT 9SM CLR 14/13 A3015 RMK AO2 SLP202 T01390128


Station Type Date Time Source
KHKS Decoded METAR 2021/09/25 12:53 UTC NOAA

HAWKINS FIELD, MS, United States (KHKS) 32-20N 090-13W 108M
Sep 25, 2021 - 08:53 AM EDT / 2021.09.25 1253 UTC
Wind: Calm:0
Visibility: 9 mile(s):0
Sky conditions: clear
Temperature: 57.0 F (13.9 C)
Dew Point: 55.0 F (12.8 C)
Relative Humidity: 93%
Pressure (altimeter): 30.15 in. Hg (1020 hPa)
ob: KHKS 251253Z 00000KT 9SM CLR 14/13 A3015 RMK AO2 SLP202 T01390128
cycle: 13

Station Type Date Time Source
KHKS TAF 2021/09/25 12:22 UTC NOAA

TAF KHKS 251120Z 2512/2612 32005KT P6SM FEW250

Example: see airport list